Time;durP1;ratioP1;P1;durP2;ratioP2;P2;SDS_P1;SDS_P2;PMS_P1;PMS_P2;Temp;Humidity;BMP_temperature;BMP_pressure;BME280_temperature;BME280_humidity;BME280_pressure;Samples;Min_cycle;Max_cycle;Signal;HPM_P1;HPM_P2
2022/07/20 00:00:48;;;;;;;8.38;3.15;;;;;;;23.25;49.08;101262.09;5046660;28;20440;-76
2022/07/20 00:03:13;;;;;;;7.27;3.57;;;;;;;24.17;42.59;101305.09;5052682;28;20108;-76
2022/07/20 00:05:40;;;;;;;10.67;4.00;;;;;;;24.65;40.34;101265.44;5044686;28;20025;-75
2022/07/20 00:08:06;;;;;;;9.75;3.05;;;;;;;24.62;40.23;101266.00;5033351;28;20029;-75
2022/07/20 00:13:16;;;;;;;10.32;3.25;;;;;;;24.96;38.15;101281.16;5031740;28;20039;-76
2022/07/20 00:15:42;;;;;;;8.63;3.80;;;;;;;24.88;39.17;101257.31;5031901;28;20034;-76
2022/07/20 00:18:08;;;;;;;;;;;;;;;24.87;39.35;101260.41;5043197;28;20101;-77
2022/07/20 00:20:34;;;;;;;5.90;3.30;;;;;;;24.58;40.31;101271.31;5035823;28;20434;-77
2022/07/20 00:22:59;;;;;;;10.15;3.88;;;;;;;24.40;41.08;101265.38;5030394;28;20037;-76
2022/07/20 00:25:25;;;;;;;13.77;3.47;;;;;;;24.26;41.35;101247.41;5032744;28;20029;-75
2022/07/20 00:27:51;;;;;;;;;;;;;;;24.17;42.21;101241.53;5047209;28;20083;-76
2022/07/20 00:30:17;;;;;;;8.40;3.08;;;;;;;23.95;42.83;101242.91;5031630;28;20345;-76
2022/07/20 00:32:42;;;;;;;15.52;3.28;;;;;;;23.82;43.32;101244.22;5031129;28;20055;-76
2022/07/20 00:35:11;;;;;;;13.13;3.50;;;;;;;23.76;43.57;101241.66;5036121;28;20523;-77
2022/07/20 00:37:36;;;;;;;5.82;3.53;;;;;;;23.61;44.16;101228.47;5046957;28;20061;-76
2022/07/20 00:40:03;;;;;;;14.57;3.87;;;;;;;23.49;44.87;101236.25;5046664;28;20467;-75
2022/07/20 00:42:29;;;;;;;9.07;3.22;;;;;;;23.38;45.09;101233.66;5050011;28;20063;-76
2022/07/20 00:44:54;;;;;;;6.70;3.50;;;;;;;23.22;45.67;101240.28;5038934;28;20029;-76
2022/07/20 00:47:20;;;;;;;7.80;3.37;;;;;;;23.15;45.64;101246.06;5030954;28;20083;-76
2022/07/20 00:49:45;;;;;;;8.53;3.93;;;;;;;23.12;45.92;101240.19;5030148;28;20076;-76
2022/07/20 00:52:11;;;;;;;9.43;3.10;;;;;;;23.02;46.80;101257.75;5046136;28;20036;-77
2022/07/20 00:54:39;;;;;;;5.57;3.30;;;;;;;23.11;45.76;101238.50;5034324;28;20076;-77
2022/07/20 00:57:04;;;;;;;86.85;4.78;;;;;;;23.04;46.39;101249.09;5046241;28;20040;-76
2022/07/20 00:59:30;;;;;;;6.47;2.97;;;;;;;22.95;46.61;101239.53;5051461;28;20033;-77
2022/07/20 01:01:55;;;;;;;13.43;3.27;;;;;;;22.86;47.32;101243.91;5034260;28;20041;-76
2022/07/20 01:04:21;;;;;;;19.77;3.17;;;;;;;22.75;47.08;101245.81;5034216;28;20342;-76
2022/07/20 01:06:48;;;;;;;6.60;3.13;;;;;;;22.56;47.95;101263.25;5033182;28;20374;-76
2022/07/20 01:09:13;;;;;;;8.45;3.85;;;;;;;22.73;47.61;101259.19;5032245;28;20579;-77
2022/07/20 01:11:39;;;;;;;11.93;4.10;;;;;;;22.65;47.70;101262.47;5042428;28;20061;-76
2022/07/20 01:14:07;;;;;;;15.83;3.57;;;;;;;22.59;48.22;101265.47;5033129;28;20040;-78
2022/07/20 01:16:32;;;;;;;8.50;4.30;;;;;;;22.55;48.21;101269.91;5040217;28;20043;-76
2022/07/20 01:18:58;;;;;;;6.72;4.10;;;;;;;22.48;48.30;101272.94;5046933;28;20041;-77
2022/07/20 01:21:24;;;;;;;7.32;3.22;;;;;;;22.42;48.87;101290.69;5030576;28;20507;-76
2022/07/20 01:23:49;;;;;;;15.37;4.77;;;;;;;22.73;47.41;101303.06;5042031;28;20102;-75
2022/07/20 01:26:19;;;;;;;15.57;6.10;;;;;;;23.38;46.70;101309.19;5037810;28;20043;-74
2022/07/20 01:28:44;;;;;;;18.27;6.63;;;;;;;23.53;48.07;101307.28;5030620;28;20087;-75
2022/07/20 01:31:10;;;;;;;15.43;8.73;;;;;;;23.71;49.32;101320.00;5035933;28;20029;-77
2022/07/20 01:33:35;;;;;;;14.77;8.27;;;;;;;23.64;50.89;101308.22;5029382;28;20041;-76
2022/07/20 01:36:01;;;;;;;22.17;8.70;;;;;;;23.67;51.83;101316.03;5035919;28;20068;-75
2022/07/20 01:38:26;;;;;;;22.27;8.87;;;;;;;23.62;52.46;101316.00;5038922;28;20090;-76
2022/07/20 01:40:51;;;;;;;24.03;10.23;;;;;;;23.54;53.96;101313.75;5034008;28;20076;-75
2022/07/20 01:43:17;;;;;;;28.97;11.83;;;;;;;23.51;56.07;101319.88;5040787;28;20033;-77
2022/07/20 01:45:43;;;;;;;27.27;12.60;;;;;;;23.43;58.26;101309.22;5031071;28;20775;-76
2022/07/20 01:48:08;;;;;;;31.05;13.85;;;;;;;23.31;59.17;101308.56;5039518;28;20040;-77
2022/07/20 01:50:34;;;;;;;27.43;14.47;;;;;;;23.21;61.39;101312.13;5039705;28;20121;-76
2022/07/20 01:52:59;;;;;;;31.85;14.88;;;;;;;23.15;61.59;101323.53;5030482;28;20123;-76
2022/07/20 01:55:26;;;;;;;32.00;15.90;;;;;;;23.11;62.80;101316.78;5032521;28;20041;-76
2022/07/20 01:57:51;;;;;;;35.85;15.93;;;;;;;23.11;63.47;101322.38;5033995;28;20034;-76
2022/07/20 02:00:17;;;;;;;32.80;17.73;;;;;;;23.05;63.47;101321.47;5029745;28;20630;-77
2022/07/20 02:02:42;;;;;;;36.67;18.27;;;;;;;23.03;64.79;101317.25;5030495;28;20040;-76
2022/07/20 02:05:09;;;;;;;38.83;17.87;;;;;;;22.99;65.27;101310.53;5039585;28;20412;-74
2022/07/20 02:07:34;;;;;;;;;;;;;;;22.98;65.74;101317.22;5042984;28;20033;-76
2022/07/20 02:10:00;;;;;;;38.05;19.42;;;;;;;22.92;66.50;101315.50;5041401;28;19921;-74
2022/07/20 02:12:25;;;;;;;45.97;20.77;;;;;;;22.94;66.53;101321.69;5039680;28;20029;-76
2022/07/20 02:14:50;;;;;;;51.27;22.43;;;;;;;22.92;67.19;101318.28;5036885;28;20041;-76
2022/07/20 02:17:16;;;;;;;46.80;23.97;;;;;;;22.85;67.98;101326.06;5028703;28;20075;-76
2022/07/20 02:19:41;;;;;;;43.47;22.63;;;;;;;22.81;67.54;101327.69;5027883;28;20398;-75
2022/07/20 02:22:06;;;;;;;51.47;24.53;;;;;;;22.84;68.51;101322.41;5030079;28;20144;-76
2022/07/20 02:24:32;;;;;;;48.83;26.30;;;;;;;22.76;69.21;101324.84;5037924;28;20067;-76
2022/07/20 02:26:57;;;;;;;46.03;25.17;;;;;;;22.71;68.70;101324.81;5048821;28;20033;-76
2022/07/20 02:29:22;;;;;;;44.93;24.50;;;;;;;22.73;69.06;101319.81;5049024;28;20037;-76
2022/07/20 02:31:48;;;;;;;43.47;25.13;;;;;;;22.70;69.07;101314.75;5045825;28;20104;-76
2022/07/20 02:34:13;;;;;;;52.50;26.03;;;;;;;22.72;68.66;101323.72;5027914;28;20017;-77
2022/07/20 02:36:39;;;;;;;51.83;27.33;;;;;;;22.66;69.62;101320.03;5029382;28;20109;-77
2022/07/20 02:39:05;;;;;;;44.57;27.63;;;;;;;22.66;69.58;101333.13;5029470;28;20026;-76
2022/07/20 02:41:32;;;;;;;48.07;29.10;;;;;;;22.72;69.24;101330.13;5044190;28;20286;-74
2022/07/20 02:43:58;;;;;;;48.80;29.35;;;;;;;22.68;69.64;101325.34;5034984;28;20031;-74
2022/07/20 02:46:23;;;;;;;56.57;29.40;;;;;;;22.68;69.52;101326.19;5044598;28;20025;-77
2022/07/20 02:48:50;;;;;;;47.77;27.63;;;;;;;22.61;69.73;101327.50;5033962;28;20544;-75
2022/07/20 02:51:15;;;;;;;53.15;28.40;;;;;;;22.60;70.14;101325.81;5045743;28;20337;-77
2022/07/20 02:53:41;;;;;;;55.83;29.10;;;;;;;22.57;68.86;101320.78;5048399;28;20033;-76
2022/07/20 02:56:06;;;;;;;58.43;30.13;;;;;;;22.61;69.85;101322.78;5035293;28;20037;-76
2022/07/20 02:58:32;;;;;;;50.17;28.63;;;;;;;22.54;70.26;101318.50;5031866;28;20041;-76
2022/07/20 03:00:57;;;;;;;55.57;30.93;;;;;;;22.57;69.93;101329.97;5039968;28;20124;-76
2022/07/20 03:03:23;;;;;;;49.47;30.57;;;;;;;22.48;70.58;101322.34;5030989;28;20473;-75
2022/07/20 03:05:48;;;;;;;46.80;28.60;;;;;;;22.49;70.60;101326.81;5031383;28;20029;-76
2022/07/20 03:08:13;;;;;;;49.87;31.00;;;;;;;22.47;70.54;101326.25;5042545;28;20033;-76
2022/07/20 03:10:39;;;;;;;56.20;30.63;;;;;;;22.42;70.64;101329.78;5044499;28;20029;-76
2022/07/20 03:13:04;;;;;;;54.80;31.67;;;;;;;22.47;70.63;101337.44;5044372;28;20029;-75
2022/07/20 03:15:29;;;;;;;62.20;32.57;;;;;;;22.45;70.62;101334.03;5029502;28;20084;-77
2022/07/20 03:17:55;;;;;;;56.77;33.70;;;;;;;22.50;70.58;101337.75;5031901;28;20333;-76
2022/07/20 03:20:23;;;;;;;48.53;31.23;;;;;;;22.42;70.44;101331.75;5051454;28;20039;-76
2022/07/20 03:22:49;;;;;;;54.03;31.30;;;;;;;22.38;70.94;101328.66;5051318;28;20432;-76
2022/07/20 03:25:15;;;;;;;53.25;31.63;;;;;;;22.38;70.43;101339.81;5047767;28;20024;-76
2022/07/20 03:27:40;;;;;;;55.53;31.90;;;;;;;22.41;70.69;101333.69;5031174;28;20083;-76
2022/07/20 03:30:06;;;;;;;57.80;31.40;;;;;;;22.38;70.43;101336.19;5031161;28;20033;-77
2022/07/20 03:32:32;;;;;;;48.88;30.98;;;;;;;22.36;70.80;101341.19;5037405;28;20034;-77
2022/07/20 03:34:58;;;;;;;52.50;30.40;;;;;;;22.32;71.10;101351.19;5030052;28;20045;-76
2022/07/20 03:37:23;;;;;;;57.93;30.27;;;;;;;22.33;70.55;101362.09;5029377;28;20495;-77
2022/07/20 03:39:48;;;;;;;48.50;29.10;;;;;;;22.30;71.20;101375.75;5030942;28;20119;-77
2022/07/20 03:42:14;;;;;;;46.77;26.83;;;;;;;22.33;70.94;101386.38;5030307;28;20032;-77
2022/07/20 03:44:39;;;;;;;47.90;27.67;;;;;;;22.26;70.71;101382.94;5031836;28;20491;-77
2022/07/20 03:47:04;;;;;;;49.80;24.97;;;;;;;22.34;70.44;101376.88;5035588;28;20029;-77
2022/07/20 03:49:30;;;;;;;43.27;24.50;;;;;;;22.34;70.20;101383.31;5030909;28;20029;-76
2022/07/20 03:51:56;;;;;;;53.70;26.20;;;;;;;22.33;70.50;101390.03;5046208;28;20086;-76
2022/07/20 03:54:21;;;;;;;51.00;24.75;;;;;;;22.29;70.27;101390.78;5030758;28;20064;-76
2022/07/20 03:56:46;;;;;;;36.27;23.70;;;;;;;22.31;69.80;101385.81;5030270;28;20398;-76
2022/07/20 03:59:12;;;;;;;38.50;23.37;;;;;;;22.35;69.85;101387.78;5029300;28;20530;-74
2022/07/20 04:01:38;;;;;;;49.15;23.80;;;;;;;22.38;69.56;101386.44;5032755;28;20037;-75
2022/07/20 04:04:04;;;;;;;35.35;21.92;;;;;;;22.46;69.19;101400.81;5044507;28;20412;-76
2022/07/20 04:06:30;;;;;;;45.47;21.48;;;;;;;22.49;68.55;101400.28;5048751;28;20162;-77
2022/07/20 04:08:56;;;;;;;46.17;22.93;;;;;;;22.49;68.27;101402.22;5030273;28;20548;-76
2022/07/20 04:11:21;;;;;;;36.80;21.30;;;;;;;22.60;67.84;101401.22;5036753;28;20448;-77
2022/07/20 04:13:47;;;;;;;38.20;20.70;;;;;;;22.56;67.45;101400.09;5030949;28;20037;-77
2022/07/20 04:16:12;;;;;;;38.67;19.57;;;;;;;22.61;67.03;101405.72;5038672;28;20044;-76
2022/07/20 04:18:38;;;;;;;31.58;18.35;;;;;;;22.63;66.57;101409.09;5041298;28;20033;-76
2022/07/20 04:21:03;;;;;;;33.83;19.50;;;;;;;22.63;66.05;101412.72;5040597;28;20116;-76
2022/07/20 04:23:28;;;;;;;36.83;18.93;;;;;;;22.61;66.03;101409.34;5039942;28;20017;-76
2022/07/20 04:25:54;;;;;;;31.90;17.40;;;;;;;22.64;65.69;101411.66;5040450;28;20087;-76
2022/07/20 04:28:19;;;;;;;34.87;17.50;;;;;;;22.68;65.14;101412.78;5040477;28;20037;-76
2022/07/20 04:30:44;;;;;;;28.33;15.47;;;;;;;22.69;64.73;101414.50;5034476;28;20021;-75
2022/07/20 04:33:10;;;;;;;31.47;16.47;;;;;;;22.70;64.53;101427.34;5038190;28;20036;-76
2022/07/20 04:35:36;;;;;;;42.53;17.03;;;;;;;22.69;64.49;101431.25;5032672;28;20036;-76
2022/07/20 04:38:01;;;;;;;33.10;15.20;;;;;;;22.68;64.60;101437.09;5033031;28;20039;-76
2022/07/20 04:40:27;;;;;;;30.53;16.43;;;;;;;22.65;64.37;101446.84;5031894;28;20039;-73
2022/07/20 04:42:52;;;;;;;30.07;15.83;;;;;;;22.65;64.42;101452.44;5038384;28;20128;-76
2022/07/20 04:45:18;;;;;;;33.37;16.27;;;;;;;22.57;64.90;101449.25;5046011;28;20060;-76
2022/07/20 04:47:43;;;;;;;33.77;15.70;;;;;;;22.57;64.48;101449.25;5044152;28;20055;-77
2022/07/20 04:50:08;;;;;;;31.23;16.20;;;;;;;22.55;64.87;101451.44;5034715;28;20086;-77
2022/07/20 04:52:34;;;;;;;38.60;16.70;;;;;;;22.49;65.10;101453.34;5029378;28;21541;-76
2022/07/20 04:54:59;;;;;;;40.23;15.03;;;;;;;22.56;65.14;101451.19;5030776;28;20036;-77
2022/07/20 04:57:25;;;;;;;36.97;15.27;;;;;;;22.43;65.59;101448.78;5035819;28;20083;-76
2022/07/20 04:59:50;;;;;;;31.97;14.17;;;;;;;22.49;65.49;101442.19;5034514;28;20443;-76
2022/07/20 05:02:16;;;;;;;24.27;14.30;;;;;;;22.53;65.47;101453.66;5033447;28;20611;-76
2022/07/20 05:04:41;;;;;;;26.07;14.50;;;;;;;22.47;65.33;101446.34;5031001;28;20104;-77
2022/07/20 05:07:06;;;;;;;31.20;14.03;;;;;;;22.54;65.54;101446.97;5042640;28;22144;-75
2022/07/20 05:09:33;;;;;;;30.70;13.07;;;;;;;22.47;65.54;101449.13;5029091;28;20033;-77
2022/07/20 05:11:58;;;;;;;24.70;12.93;;;;;;;22.50;65.59;101462.56;5032574;28;20039;-76
2022/07/20 05:14:24;;;;;;;26.60;12.67;;;;;;;22.54;65.42;101458.16;5037117;28;20486;-76
2022/07/20 05:16:49;;;;;;;31.17;13.30;;;;;;;22.57;65.76;101475.22;5049249;28;20524;-76
2022/07/20 05:19:14;;;;;;;25.53;11.37;;;;;;;22.65;65.23;101469.19;5030476;28;20480;-77
2022/07/20 05:21:40;;;;;;;29.70;12.03;;;;;;;22.71;64.98;101482.09;5029436;28;20211;-76
2022/07/20 05:24:07;;;;;;;31.33;12.93;;;;;;;22.77;64.82;101478.28;5036645;28;20030;-76
2022/07/20 05:26:32;;;;;;;27.02;11.90;;;;;;;23.20;63.71;101494.16;5035345;28;20118;-76
2022/07/20 05:28:57;;;;;;;24.13;10.97;;;;;;;23.64;62.19;101492.88;5028412;28;20029;-75
2022/07/20 05:31:23;;;;;;;33.13;12.97;;;;;;;23.81;61.13;101497.22;5032292;28;20025;-76
2022/07/20 05:33:48;;;;;;;28.23;10.77;;;;;;;24.13;60.03;101502.78;5031940;28;20037;-75
2022/07/20 05:36:13;;;;;;;27.13;10.13;;;;;;;24.41;59.61;101513.56;5031005;28;20063;-75
2022/07/20 05:38:39;;;;;;;32.17;11.07;;;;;;;24.78;58.21;101505.94;5025371;28;20546;-75
2022/07/20 05:41:04;;;;;;;25.67;9.90;;;;;;;25.14;57.40;101508.56;5033712;28;20033;-75
2022/07/20 05:43:30;;;;;;;27.93;10.53;;;;;;;25.17;56.72;101512.78;5031171;28;20393;-75
2022/07/20 05:45:55;;;;;;;28.33;11.20;;;;;;;24.98;57.32;101511.63;5028462;28;20045;-76
2022/07/20 05:48:21;;;;;;;29.50;11.27;;;;;;;25.43;56.71;101514.53;5036602;28;20289;-75
2022/07/20 05:50:46;;;;;;;27.20;11.53;;;;;;;25.55;55.78;101527.19;5035907;28;20033;-75
2022/07/20 05:53:12;;;;;;;28.17;10.32;;;;;;;25.66;55.97;101528.03;5030807;28;20037;-74
2022/07/20 05:55:39;;;;;;;24.63;9.25;;;;;;;25.92;55.00;101538.19;5029264;28;20036;-76
2022/07/20 05:58:06;;;;;;;31.48;9.90;;;;;;;25.99;55.01;101542.38;5031822;28;20504;-74
2022/07/20 06:00:32;;;;;;;28.50;10.25;;;;;;;26.38;53.58;101536.97;5032042;28;20384;-75
2022/07/20 06:02:57;;;;;;;;;;;;;;;25.66;55.22;101550.50;5035241;28;20116;-74
2022/07/20 06:05:23;;;;;;;21.58;9.73;;;;;;;25.04;57.26;101558.19;5037150;28;20328;-75
2022/07/20 06:07:48;;;;;;;32.57;10.93;;;;;;;24.77;58.28;101571.53;5028473;28;20099;-76
2022/07/20 06:10:14;;;;;;;24.80;10.57;;;;;;;24.55;59.11;101580.06;5031814;28;20056;-74
2022/07/20 06:12:39;;;;;;;24.15;10.48;;;;;;;24.62;59.13;101591.91;5029855;28;20064;-74
2022/07/20 06:15:05;;;;;;;22.33;10.33;;;;;;;24.36;60.21;101594.78;5031778;28;20404;-74
2022/07/20 06:17:39;;;;;;;22.45;10.48;;;;;;;24.17;61.26;101601.94;5026772;28;20116;-73
2022/07/20 06:20:09;;;;;;;29.05;10.30;;;;;;;24.54;60.29;101612.00;5032525;28;20105;-74
2022/07/20 06:22:36;;;;;;;23.17;9.75;;;;;;;24.61;60.16;101631.41;5029301;28;20029;-75
2022/07/20 06:25:02;;;;;;;;;;;;;;;24.54;60.30;101642.00;5040902;28;20057;-72
2022/07/20 06:27:27;;;;;;;22.55;8.88;;;;;;;24.22;60.66;101652.41;5033501;28;20040;-76
2022/07/20 06:29:52;;;;;;;26.27;10.30;;;;;;;24.07;61.01;101663.47;5027968;28;20091;-72
2022/07/20 06:32:18;;;;;;;25.40;9.80;;;;;;;24.12;60.76;101655.09;5026905;28;20083;-74
2022/07/20 06:34:43;;;;;;;28.07;10.37;;;;;;;24.39;61.09;101678.31;5034917;28;20380;-76
2022/07/20 06:37:09;;;;;;;24.63;9.88;;;;;;;24.35;60.63;101666.78;5048539;28;20104;-75
2022/07/20 06:39:34;;;;;;;25.67;9.27;;;;;;;24.31;60.93;101681.56;5048494;28;20365;-76
2022/07/20 06:41:59;;;;;;;20.87;9.53;;;;;;;24.73;60.11;101679.69;5037486;28;20030;-75
2022/07/20 06:44:25;;;;;;;20.40;9.60;;;;;;;24.55;60.19;101683.72;5028026;28;20469;-75
2022/07/20 06:46:50;;;;;;;20.37;9.87;;;;;;;24.31;61.33;101690.84;5033175;28;20037;-76
2022/07/20 06:49:15;;;;;;;29.60;10.73;;;;;;;24.33;61.64;101696.19;5029254;28;20029;-76
2022/07/20 06:51:40;;;;;;;24.07;10.10;;;;;;;24.15;60.96;101700.22;5029021;28;20479;-75
2022/07/20 06:54:06;;;;;;;21.37;8.43;;;;;;;24.02;61.27;101717.44;5031207;28;20319;-75
2022/07/20 06:56:31;;;;;;;24.60;9.30;;;;;;;23.94;61.03;101728.25;5041980;28;20334;-76
2022/07/20 06:58:56;;;;;;;28.33;8.80;;;;;;;24.67;59.46;101715.28;5030104;28;20751;-76
2022/07/20 07:01:22;;;;;;;29.70;9.20;;;;;;;24.97;57.67;101729.47;5036259;28;20060;-75
2022/07/20 07:03:47;;;;;;;26.23;8.87;;;;;;;25.64;56.42;101715.53;5034065;28;20112;-76
2022/07/20 07:06:12;;;;;;;20.03;8.60;;;;;;;25.96;55.93;101717.06;5038351;28;20048;-75
2022/07/20 07:08:38;;;;;;;26.10;9.43;;;;;;;26.28;55.36;101719.63;5027549;28;20028;-75
2022/07/20 07:11:03;;;;;;;23.27;9.65;;;;;;;26.85;53.22;101704.19;5027752;28;20109;-75
2022/07/20 07:13:29;;;;;;;24.93;8.43;;;;;;;26.59;53.71;101710.97;5027746;28;20029;-74
2022/07/20 07:15:54;;;;;;;22.90;9.10;;;;;;;26.44;54.14;101704.47;5036336;28;20024;-73
2022/07/20 07:18:19;;;;;;;24.83;8.97;;;;;;;26.60;52.51;101694.94;5036028;28;20017;-74
2022/07/20 07:20:45;;;;;;;19.57;8.57;;;;;;;26.98;51.97;101708.38;5036007;28;20108;-75
2022/07/20 07:23:10;;;;;;;17.13;8.07;;;;;;;26.64;51.81;101710.13;5029565;28;20090;-74
2022/07/20 07:25:36;;;;;;;13.70;8.05;;;;;;;26.95;51.52;101718.22;5033575;28;20032;-76
2022/07/20 07:28:02;;;;;;;26.08;8.00;;;;;;;26.47;52.39;101734.84;5041157;28;20040;-74
2022/07/20 07:30:27;;;;;;;17.37;8.07;;;;;;;26.74;51.48;101738.22;5040308;28;20037;-75
2022/07/20 07:32:52;;;;;;;23.03;9.60;;;;;;;26.69;51.71;101749.47;5045715;28;20297;-76
2022/07/20 07:35:17;;;;;;;24.23;8.33;;;;;;;26.50;51.97;101737.06;5031355;28;20124;-76
2022/07/20 07:37:43;;;;;;;19.40;7.80;;;;;;;27.06;50.90;101728.31;5032645;28;20476;-76
2022/07/20 07:40:09;;;;;;;17.57;7.80;;;;;;;27.27;50.41;101746.06;5039224;28;20036;-76
2022/07/20 07:42:34;;;;;;;18.50;8.18;;;;;;;27.57;49.63;101743.09;5030432;28;20044;-74
2022/07/20 07:45:04;;;;;;;16.17;7.77;;;;;;;27.16;49.76;101748.00;5036024;28;20029;-76
2022/07/20 07:47:31;;;;;;;18.85;8.30;;;;;;;27.44;49.17;101746.56;5032747;28;20025;-73
2022/07/20 07:49:56;;;;;;;25.90;8.40;;;;;;;27.30;49.55;101751.09;5031191;28;20037;-75
2022/07/20 07:52:21;;;;;;;14.37;7.73;;;;;;;27.06;49.87;101748.00;5037911;28;20029;-73
2022/07/20 07:54:46;;;;;;;14.90;8.57;;;;;;;27.04;50.37;101749.47;5036410;28;20116;-75
2022/07/20 07:57:12;;;;;;;16.67;8.27;;;;;;;26.86;50.80;101748.06;5034921;28;20033;-73
2022/07/20 07:59:37;;;;;;;21.07;8.33;;;;;;;27.00;51.08;101737.06;5030502;28;20029;-75
2022/07/20 08:02:02;;;;;;;18.67;9.17;;;;;;;26.77;51.36;101743.28;5035459;28;20149;-74
2022/07/20 08:04:28;;;;;;;16.43;7.80;;;;;;;26.69;51.12;101736.28;5035733;28;20029;-73
2022/07/20 08:06:53;;;;;;;17.83;8.20;;;;;;;26.36;51.54;101730.34;5036497;28;20028;-72
2022/07/20 08:09:19;;;;;;;21.37;8.73;;;;;;;26.61;51.64;101719.97;5050445;28;20263;-74
2022/07/20 08:11:44;;;;;;;16.83;8.40;;;;;;;26.87;50.30;101718.81;5048943;28;20016;-74
2022/07/20 08:14:10;;;;;;;14.03;8.47;;;;;;;27.47;49.69;101710.22;5032902;28;20037;-74
2022/07/20 08:16:35;;;;;;;16.50;8.60;;;;;;;27.68;49.79;101705.34;5028940;28;20388;-74
2022/07/20 08:19:00;;;;;;;15.13;7.93;;;;;;;28.22;47.73;101700.53;5033582;28;20290;-73
2022/07/20 08:21:26;;;;;;;20.30;8.17;;;;;;;28.27;46.54;101692.84;5035743;28;20064;-74
2022/07/20 08:23:51;;;;;;;17.50;8.00;;;;;;;27.44;47.82;101693.91;5028838;28;20048;-75
2022/07/20 08:26:16;;;;;;;14.23;7.87;;;;;;;27.02;48.08;101701.06;5031329;28;20126;-76
2022/07/20 08:28:42;;;;;;;25.40;8.80;;;;;;;26.81;48.61;101693.78;5041893;28;20099;-72
2022/07/20 08:31:07;;;;;;;15.43;7.53;;;;;;;27.01;47.87;101700.22;5030659;28;20037;-75
2022/07/20 08:33:32;;;;;;;10.73;6.67;;;;;;;27.01;46.50;101703.03;5043995;28;20041;-78
2022/07/20 08:35:58;;;;;;;13.77;6.30;;;;;;;27.00;45.05;101709.78;5030145;28;20029;-80
2022/07/20 08:38:23;;;;;;;13.83;7.07;;;;;;;26.82;44.64;101710.38;5027680;28;20535;-74
2022/07/20 08:40:48;;;;;;;7.40;4.77;;;;;;;26.84;44.60;101716.56;5037177;28;20025;-74
2022/07/20 08:43:15;;;;;;;10.87;5.40;;;;;;;26.68;45.13;101695.19;5032762;28;20032;-71
2022/07/20 08:45:41;;;;;;;11.90;5.43;;;;;;;26.91;44.80;101668.44;5033331;28;20028;-75
2022/07/20 08:48:08;;;;;;;13.97;4.70;;;;;;;26.90;45.03;101653.53;5028911;28;20362;-77
2022/07/20 08:50:33;;;;;;;13.57;5.38;;;;;;;27.05;44.88;101645.06;5030750;28;20036;-77
2022/07/20 08:52:59;;;;;;;13.13;5.37;;;;;;;27.21;44.79;101632.63;5035081;28;20108;-75
2022/07/20 08:55:26;;;;;;;11.88;5.22;;;;;;;27.56;44.87;101628.81;5041017;28;20284;-74
2022/07/20 08:57:51;;;;;;;16.38;5.85;;;;;;;27.33;44.41;101635.97;5037267;28;20082;-74
2022/07/20 09:00:17;;;;;;;12.70;4.63;;;;;;;27.59;43.73;101684.53;5034301;28;20033;-75
2022/07/20 09:02:51;;;;;;;17.88;5.32;;;;;;;27.33;44.56;101697.91;5039537;28;20024;-75
2022/07/20 09:05:17;;;;;;;14.05;5.80;;;;;;;27.25;45.48;101726.63;5029948;28;20159;-76
2022/07/20 09:07:51;;;;;;;13.73;5.65;;;;;;;27.17;45.40;101768.59;5026100;28;20680;-76
2022/07/20 09:10:23;;;;;;;16.65;5.53;;;;;;;27.33;45.48;101759.84;5026306;28;20057;-76
2022/07/20 09:13:01;;;;;;;11.85;5.05;;;;;;;27.24;45.61;101771.94;5035985;28;20492;-76
2022/07/20 09:15:37;;;;;;;10.65;5.55;;;;;;;27.47;45.14;101760.06;5043472;28;20040;-76
2022/07/20 09:18:04;;;;;;;12.55;6.32;;;;;;;27.35;44.94;101774.44;5032246;28;20037;-75
2022/07/20 09:20:31;;;;;;;10.38;5.20;;;;;;;27.06;45.51;101756.47;5029312;28;20083;-77
2022/07/20 09:23:05;;;;;;;12.45;6.45;;;;;;;27.20;45.44;101768.84;5037579;28;20045;-75
2022/07/20 09:25:30;;;;;;;10.43;6.75;;;;;;;27.03;45.95;101781.50;5032443;28;20021;-77
2022/07/20 09:27:56;;;;;;;15.07;6.13;;;;;;;26.87;46.17;101777.03;5040719;28;20087;-76
2022/07/20 09:30:22;;;;;;;11.20;5.20;;;;;;;27.35;45.58;101784.84;5034009;28;20067;-76
2022/07/20 09:32:57;;;;;;;10.55;5.30;;;;;;;27.28;44.58;101796.44;5028829;28;20041;-76
2022/07/20 09:35:28;;;;;;;13.05;5.72;;;;;;;27.57;44.99;101779.72;5032823;28;20033;-76
2022/07/20 09:37:55;;;;;;;10.38;5.30;;;;;;;28.36;44.11;101797.38;5039705;28;20098;-76
2022/07/20 09:40:21;;;;;;;11.70;5.63;;;;;;;28.70;42.61;101798.31;5034943;28;20083;-76
2022/07/20 09:42:47;;;;;;;12.60;5.63;;;;;;;28.24;44.69;101809.03;5028051;28;20029;-76
2022/07/20 09:45:25;;;;;;;12.73;6.32;;;;;;;28.11;43.94;101808.81;5035697;28;20426;-75
2022/07/20 09:48:01;;;;;;;10.75;5.53;;;;;;;28.55;43.07;101830.25;5041755;28;20025;-76
2022/07/20 09:50:29;;;;;;;12.13;5.65;;;;;;;28.12;43.25;101831.06;5025768;28;20037;-77
2022/07/20 09:52:54;;;;;;;16.48;6.72;;;;;;;28.11;43.16;101829.38;5032359;28;20438;-76
2022/07/20 09:55:20;;;;;;;8.63;5.30;;;;;;;27.56;43.90;101818.31;5030281;28;20527;-76
2022/07/20 09:57:46;;;;;;;13.07;5.25;;;;;;;27.73;44.08;101809.50;5031769;28;20029;-76
2022/07/20 10:00:12;;;;;;;19.15;5.93;;;;;;;27.90;43.64;101821.31;5027856;28;20553;-75
2022/07/20 10:02:38;;;;;;;10.93;5.90;;;;;;;28.30;43.15;101821.09;5033231;28;20112;-75
2022/07/20 10:05:04;;;;;;;11.43;5.32;;;;;;;28.45;43.44;101823.88;5035857;28;20033;-76
2022/07/20 10:07:29;;;;;;;12.60;5.57;;;;;;;28.85;42.64;101820.72;5034219;28;20033;-76
2022/07/20 10:09:56;;;;;;;18.30;5.82;;;;;;;28.80;40.81;101826.44;5039584;28;20137;-77
2022/07/20 10:12:21;;;;;;;9.82;4.85;;;;;;;28.83;41.42;101843.63;5040245;28;20440;-76
2022/07/20 10:14:51;;;;;;;7.45;4.75;;;;;;;28.19;42.35;101853.31;5043458;28;20090;-76
2022/07/20 10:17:17;;;;;;;9.05;3.92;;;;;;;27.90;43.16;101849.50;5036982;28;20514;-73
2022/07/20 10:19:47;;;;;;;11.65;4.78;;;;;;;27.59;44.26;101851.50;5027643;28;20043;-74
2022/07/20 10:22:13;;;;;;;10.52;4.43;;;;;;;27.93;43.27;101849.75;5027361;28;20059;-75
2022/07/20 10:24:42;;;;;;;9.57;4.30;;;;;;;28.10;43.53;101838.97;5041403;28;20104;-75
2022/07/20 10:27:08;;;;;;;9.80;5.43;;;;;;;28.27;43.56;101849.88;5028862;28;20040;-75
2022/07/20 10:29:42;;;;;;;11.23;4.30;;;;;;;27.80;43.61;101844.72;5042261;28;20484;-75
2022/07/20 10:32:20;;;;;;;11.75;6.13;;;;;;;27.35;45.37;101841.16;5039027;28;20400;-75
2022/07/20 10:34:54;;;;;;;13.38;5.75;;;;;;;27.04;45.42;101831.06;5033444;28;20033;-75
2022/07/20 10:37:36;;;;;;;12.15;6.45;;;;;;;27.36;46.60;101837.25;5028286;28;20030;-74
2022/07/20 10:40:06;;;;;;;16.35;6.38;;;;;;;27.27;47.81;101828.50;5030912;28;20451;-73
2022/07/20 10:42:34;;;;;;;11.23;6.15;;;;;;;26.96;48.21;101832.47;5040300;28;20514;-75
2022/07/20 10:45:27;;;;;;;11.05;5.60;;;;;;;27.54;47.40;101829.00;5028661;28;20040;-74
2022/07/20 10:47:55;;;;;;;14.00;6.70;;;;;;;27.37;48.25;101844.53;5044189;28;20694;-73
2022/07/20 10:50:36;;;;;;;15.18;5.78;;;;;;;27.13;47.21;101812.44;5028927;28;20025;-74
2022/07/20 10:53:10;;;;;;;14.15;6.53;;;;;;;26.91;47.83;101823.16;5026738;28;20681;-73
2022/07/20 10:55:36;;;;;;;12.73;5.80;;;;;;;26.23;48.71;101798.31;5027476;28;20112;-74
2022/07/20 10:58:12;;;;;;;12.90;5.17;;;;;;;26.52;49.01;101777.00;5027708;28;20722;-73
2022/07/20 11:00:43;;;;;;;11.48;6.03;;;;;;;26.58;49.47;101790.78;5027802;28;20030;-74
2022/07/20 11:03:13;;;;;;;13.27;5.72;;;;;;;26.91;48.93;101797.84;5029351;28;20041;-73
2022/07/20 11:05:39;;;;;;;10.23;6.18;;;;;;;26.65;49.74;101819.50;5042106;28;20029;-74
2022/07/20 11:08:06;;;;;;;10.25;5.45;;;;;;;26.58;49.65;101857.44;5031638;28;20117;-73
2022/07/20 11:10:32;;;;;;;12.60;5.47;;;;;;;27.03;49.22;101823.72;5034982;28;20068;-74
2022/07/20 11:13:02;;;;;;;11.27;6.27;;;;;;;26.80;50.39;101829.91;5032529;28;20480;-75
2022/07/20 11:15:48;;;;;;;14.25;6.13;;;;;;;27.29;49.00;101845.09;5029749;28;20103;-73